createdAt,value
2019-05-14T00:03:31.129Z,6.70
2019-05-14T00:07:37.335Z,6.07
2019-05-14T00:11:43.756Z,6.33
2019-05-14T00:15:51.944Z,6.03
2019-05-14T00:20:07.316Z,6.10
2019-05-14T00:24:05.166Z,6.37
2019-05-14T00:28:11.762Z,6.67
2019-05-14T00:32:17.829Z,6.30
2019-05-14T00:36:24.010Z,6.80
2019-05-14T00:40:31.450Z,5.63
2019-05-14T00:44:51.541Z,5.70
2019-05-14T00:48:45.823Z,5.63
2019-05-14T00:52:52.585Z,4.70
2019-05-14T00:56:58.618Z,5.60
2019-05-14T01:01:04.774Z,4.87
2019-05-14T01:05:12.373Z,4.70
2019-05-14T01:09:18.665Z,4.77
2019-05-14T01:13:26.319Z,5.33
2019-05-14T01:17:32.830Z,5.60
2019-05-14T01:21:41.598Z,5.20
2019-05-14T01:25:47.118Z,5.13
2019-05-14T01:29:53.085Z,5.60
2019-05-14T01:33:59.182Z,4.90
2019-05-14T01:38:06.802Z,4.90
2019-05-14T01:42:12.855Z,5.00
2019-05-14T01:46:21.021Z,4.70
2019-05-14T01:50:27.219Z,4.33
2019-05-14T01:54:33.167Z,4.30
2019-05-14T01:58:41.530Z,5.27
2019-05-14T02:02:47.383Z,5.03
2019-05-14T02:06:53.530Z,4.83
2019-05-14T02:11:01.540Z,5.50
2019-05-14T02:15:08.550Z,5.47
2019-05-14T02:19:14.520Z,5.27
2019-05-14T02:23:22.754Z,5.23
2019-05-14T02:27:28.495Z,6.03
2019-05-14T02:31:34.638Z,6.53
2019-05-14T02:35:41.735Z,5.60
2019-05-14T02:39:50.274Z,6.50
2019-05-14T02:43:59.153Z,6.03
2019-05-14T02:48:03.434Z,7.63
2019-05-14T02:52:10.226Z,6.20
2019-05-14T02:56:16.517Z,6.63
2019-05-14T03:00:22.652Z,6.77
2019-05-14T03:04:30.216Z,6.90
2019-05-14T03:08:38.940Z,6.60
2019-05-14T03:12:44.735Z,6.67
2019-05-14T03:16:50.775Z,7.67
2019-05-14T03:21:00.417Z,7.50
2019-05-14T03:25:06.005Z,9.30
2019-05-14T03:29:12.149Z,8.27
2019-05-14T03:33:21.937Z,7.67
2019-05-14T03:37:30.622Z,8.00
2019-05-14T03:41:33.498Z,7.47
2019-05-14T03:45:40.704Z,7.53
2019-05-14T03:49:49.818Z,8.07
2019-05-14T03:54:03.641Z,7.10
2019-05-14T03:58:05.161Z,6.33
2019-05-14T04:02:11.504Z,4.60
2019-05-14T04:06:19.128Z,5.20
2019-05-14T04:10:25.930Z,4.17
2019-05-14T04:14:34.358Z,4.30
2019-05-14T04:18:44.133Z,4.37
2019-05-14T04:23:02.919Z,4.23
2019-05-14T04:27:30.144Z,3.73
2019-05-14T04:31:38.996Z,6.93
2019-05-14T04:35:59.615Z,3.73
2019-05-14T04:40:22.747Z,3.63
2019-05-14T04:44:50.255Z,3.83
2019-05-14T04:49:14.329Z,4.00
2019-05-14T04:53:39.783Z,3.70
2019-05-14T04:58:04.139Z,4.30
2019-05-14T05:02:12.036Z,3.93
2019-05-14T05:06:39.376Z,3.40
2019-05-14T05:11:02.522Z,2.80
2019-05-14T05:15:10.210Z,3.07
2019-05-14T05:19:19.435Z,2.30
2019-05-14T05:23:24.377Z,2.53
2019-05-14T05:27:49.062Z,2.60
2019-05-14T05:32:14.079Z,2.33
2019-05-14T05:36:39.143Z,2.50
2019-05-14T05:41:04.559Z,2.90
2019-05-14T05:45:29.919Z,2.30
2019-05-14T05:49:41.038Z,2.40
2019-05-14T05:53:48.314Z,2.13
2019-05-14T05:57:54.857Z,2.07
2019-05-14T06:02:01.521Z,2.33
2019-05-14T06:06:28.355Z,2.10
2019-05-14T06:10:52.686Z,2.07
2019-05-14T06:15:19.110Z,2.23
2019-05-14T06:19:24.682Z,2.20
2019-05-14T06:23:30.911Z,1.87
2019-05-14T06:27:40.985Z,2.30
2019-05-14T06:31:49.375Z,2.00
2019-05-14T06:35:55.468Z,2.30
2019-05-14T06:40:01.729Z,1.90
2019-05-14T06:44:09.187Z,2.10
2019-05-14T06:48:30.092Z,2.47
2019-05-14T06:52:25.301Z,2.30
2019-05-14T06:56:31.567Z,2.13
2019-05-14T07:00:39.658Z,2.07
2019-05-14T07:04:48.212Z,2.20
2019-05-14T07:08:54.442Z,1.53
2019-05-14T07:13:00.685Z,2.40
2019-05-14T07:17:09.072Z,1.70
2019-05-14T07:21:18.450Z,2.00
2019-05-14T07:25:24.071Z,1.80
2019-05-14T07:29:30.313Z,2.07
2019-05-14T07:33:38.783Z,2.20
2019-05-14T07:37:45.360Z,2.10
2019-05-14T07:41:51.610Z,1.60
2019-05-14T07:45:58.819Z,1.77
2019-05-14T07:50:08.851Z,2.10
2019-05-14T07:54:16.763Z,1.90
2019-05-14T07:58:23.148Z,1.80
2019-05-14T08:02:30.233Z,1.77
2019-05-14T08:06:54.754Z,2.10
2019-05-14T08:11:01.451Z,1.67
2019-05-14T08:15:18.330Z,1.87
2019-05-14T08:19:26.323Z,1.73
2019-05-14T08:23:28.224Z,1.90
2019-05-14T08:27:34.726Z,1.90
2019-05-14T08:31:41.050Z,2.50
2019-05-14T08:35:48.909Z,2.50
2019-05-14T08:39:55.787Z,2.30
2019-05-14T08:44:03.322Z,1.87
2019-05-14T08:48:09.632Z,1.87
2019-05-14T08:52:16.216Z,1.97
2019-05-14T08:56:23.327Z,2.10
2019-05-14T09:00:29.725Z,3.67
2019-05-14T09:04:36.008Z,2.80
2019-05-14T09:08:42.522Z,2.60
2019-05-14T09:12:49.245Z,2.40
2019-05-14T09:16:55.778Z,2.20
2019-05-14T09:21:02.004Z,2.00
2019-05-14T09:25:08.771Z,2.00
2019-05-14T09:29:25.025Z,2.27
2019-05-14T09:33:24.732Z,1.97
2019-05-14T09:37:31.721Z,1.63
2019-05-14T09:41:38.784Z,1.67
2019-05-14T09:45:59.424Z,1.70
2019-05-14T09:50:22.052Z,1.90
2019-05-14T09:54:23.756Z,1.63
2019-05-14T09:58:30.259Z,1.60
2019-05-14T10:02:39.252Z,2.00
2019-05-14T10:06:48.561Z,1.60
2019-05-14T10:10:54.835Z,1.90
2019-05-14T10:15:01.509Z,1.50
2019-05-14T10:19:08.274Z,1.73
2019-05-14T10:23:14.655Z,1.70
2019-05-14T10:27:20.878Z,1.50
2019-05-14T10:31:29.122Z,1.90
2019-05-14T10:35:35.833Z,1.90
2019-05-14T10:39:42.229Z,1.57
2019-05-14T10:43:49.712Z,1.33
2019-05-14T10:47:58.683Z,1.60
2019-05-14T10:52:19.762Z,1.27
2019-05-14T10:56:25.430Z,1.80
2019-05-14T11:00:32.010Z,1.67
2019-05-14T11:04:38.936Z,1.30
2019-05-14T11:08:45.403Z,1.47
2019-05-14T11:12:55.061Z,1.70
2019-05-14T11:17:19.795Z,1.70
2019-05-14T11:21:29.667Z,1.57
2019-05-14T11:25:34.331Z,1.53
2019-05-14T11:29:40.667Z,1.73
2019-05-14T11:33:49.415Z,1.97
2019-05-14T11:37:59.019Z,1.97
2019-05-14T11:42:05.458Z,1.70
2019-05-14T11:46:11.794Z,1.87
2019-05-14T11:50:19.116Z,2.00
2019-05-14T11:54:25.946Z,1.83
2019-05-14T11:58:32.692Z,1.73
2019-05-14T12:02:39.181Z,1.70
2019-05-14T12:07:04.846Z,1.60
2019-05-14T12:11:11.215Z,1.67
2019-05-14T12:15:18.787Z,1.70
2019-05-14T12:19:25.557Z,1.90
2019-05-14T12:23:49.834Z,1.80
2019-05-14T12:28:15.588Z,2.03
2019-05-14T12:32:23.626Z,2.33
2019-05-14T12:36:49.424Z,2.27
2019-05-14T12:41:14.439Z,2.27
2019-05-14T12:45:39.276Z,2.07
2019-05-14T12:49:48.340Z,2.20
2019-05-14T12:54:01.383Z,2.77
2019-05-14T12:58:08.263Z,2.00
2019-05-14T13:02:14.719Z,2.43
2019-05-14T13:06:21.392Z,2.10
2019-05-14T13:10:29.510Z,2.17
2019-05-14T13:14:36.049Z,2.20
2019-05-14T13:18:42.289Z,2.47
2019-05-14T13:22:50.263Z,2.73
2019-05-14T14:57:01.274Z,3.60
2019-05-14T15:01:08.853Z,3.30
2019-05-14T15:05:19.717Z,3.10
2019-05-14T15:09:24.843Z,2.60
2019-05-14T15:13:31.090Z,3.03
2019-05-14T15:17:39.243Z,2.57
2019-05-14T15:21:45.227Z,2.67
2019-05-14T15:25:51.595Z,2.70
2019-05-14T15:29:59.488Z,2.93
2019-05-14T15:34:08.721Z,3.03
2019-05-14T15:38:13.970Z,2.63
2019-05-14T15:42:20.278Z,3.13
2019-05-14T15:46:26.518Z,3.33
2019-05-14T15:50:33.040Z,3.20
2019-05-14T15:54:46.651Z,3.50
2019-05-14T15:58:48.197Z,2.83
2019-05-14T16:02:54.430Z,2.70
2019-05-14T16:07:00.735Z,2.63
2019-05-14T16:11:10.972Z,2.80
2019-05-14T16:15:15.261Z,2.20
2019-05-14T16:19:21.639Z,2.13
2019-05-14T16:23:28.286Z,2.73
2019-05-14T16:27:34.554Z,2.57
2019-05-14T16:31:43.488Z,2.27
2019-05-14T16:35:48.855Z,1.93
2019-05-14T16:39:55.166Z,1.83
2019-05-14T16:44:01.822Z,1.77
2019-05-14T16:48:10.939Z,1.80
2019-05-14T16:52:17.945Z,1.60
2019-05-14T16:56:24.025Z,1.93
2019-05-14T17:00:30.429Z,2.17
2019-05-14T17:04:38.701Z,2.00
2019-05-14T17:08:44.671Z,2.00
2019-05-14T17:12:56.876Z,3.07
2019-05-14T17:16:59.551Z,2.40
2019-05-14T17:21:08.940Z,1.77
2019-05-14T17:25:31.920Z,1.80
2019-05-14T17:29:38.931Z,2.30
2019-05-14T17:33:45.456Z,2.13
2019-05-14T17:37:52.670Z,2.30
2019-05-14T17:41:59.088Z,1.80
2019-05-14T17:46:05.409Z,1.60
2019-05-14T17:50:11.882Z,2.23
2019-05-14T17:54:19.209Z,1.50
2019-05-14T17:58:25.521Z,1.47
2019-05-14T18:02:32.857Z,2.00
2019-05-14T18:06:39.080Z,1.90
2019-05-14T18:10:46.288Z,2.00
2019-05-14T18:14:54.274Z,1.80
2019-05-14T18:19:01.007Z,1.70
2019-05-14T18:23:11.498Z,1.70
2019-05-14T18:27:15.249Z,2.20
2019-05-14T18:31:21.559Z,2.80
2019-05-14T18:35:42.387Z,1.90
2019-05-14T18:39:44.027Z,2.07
2019-05-14T18:43:50.910Z,1.67
2019-05-14T18:47:59.144Z,1.70
2019-05-14T18:52:05.595Z,1.70
2019-05-14T18:56:20.213Z,2.13
2019-05-14T19:00:20.731Z,2.00
2019-05-14T19:04:27.953Z,2.70
2019-05-14T19:08:34.466Z,2.03
2019-05-14T19:12:41.933Z,2.20
2019-05-14T19:17:01.085Z,1.83
2019-05-14T19:21:08.989Z,2.10
2019-05-14T19:25:26.749Z,2.13
2019-05-14T19:29:33.561Z,2.80
2019-05-14T19:33:40.443Z,3.90
2019-05-14T19:38:04.359Z,2.97
2019-05-14T19:42:14.315Z,2.10
2019-05-14T19:46:20.762Z,2.23
2019-05-14T19:50:29.379Z,2.63
2019-05-14T19:54:38.241Z,2.10
2019-05-14T19:59:03.317Z,2.33
2019-05-14T20:03:30.134Z,2.43
2019-05-14T20:07:54.291Z,2.20
2019-05-14T20:12:09.689Z,2.20
2019-05-14T20:16:18.301Z,2.33
2019-05-14T20:20:28.623Z,2.13
2019-05-14T20:24:34.806Z,2.77
2019-05-14T20:28:41.202Z,3.00
2019-05-14T20:32:49.627Z,2.17
2019-05-14T20:37:13.325Z,1.90
2019-05-14T20:41:19.827Z,2.17
2019-05-14T20:45:28.898Z,2.40
2019-05-14T20:49:42.577Z,2.00
2019-05-14T20:54:01.147Z,2.03
2019-05-14T20:58:19.561Z,1.83
2019-05-14T21:02:24.322Z,2.20
2019-05-14T21:06:39.026Z,1.90
2019-05-14T21:10:45.422Z,2.37
2019-05-14T21:15:10.350Z,2.40
2019-05-14T21:19:34.807Z,2.37
2019-05-14T21:23:59.931Z,2.03
2019-05-14T21:28:09.359Z,2.30
2019-05-14T21:32:15.378Z,2.70
2019-05-14T21:36:30.273Z,2.40
2019-05-14T21:40:38.683Z,1.93
2019-05-14T21:45:02.230Z,2.10
2019-05-14T21:49:28.365Z,2.60
2019-05-14T21:53:35.194Z,2.17
2019-05-14T21:57:59.846Z,2.17
2019-05-14T22:02:07.156Z,2.13
2019-05-14T22:06:13.123Z,2.23
2019-05-14T22:10:39.915Z,2.27
2019-05-14T22:15:03.142Z,2.60
2019-05-14T22:19:28.707Z,2.20
2019-05-14T22:23:55.218Z,2.40
2019-05-14T22:28:19.249Z,2.40
2019-05-14T22:32:44.015Z,2.10
2019-05-14T22:37:09.101Z,2.47
2019-05-14T22:41:33.760Z,2.17
2019-05-14T22:45:59.046Z,2.27
2019-05-14T22:50:11.047Z,2.40
2019-05-14T22:54:17.725Z,2.50
2019-05-14T22:58:25.870Z,2.53
2019-05-14T23:02:38.159Z,2.77
2019-05-14T23:06:44.423Z,2.33
2019-05-14T23:10:50.566Z,2.57
2019-05-14T23:14:58.141Z,2.50
2019-05-14T23:19:07.954Z,2.53
2019-05-14T23:23:15.708Z,2.80
2019-05-14T23:27:23.073Z,2.80
2019-05-14T23:31:29.332Z,2.93
2019-05-14T23:35:41.131Z,3.40
2019-05-14T23:40:08.568Z,2.83
2019-05-14T23:44:32.627Z,3.07
2019-05-14T23:48:56.361Z,3.80
2019-05-14T23:53:20.968Z,2.80
2019-05-14T23:57:47.954Z,3.57
